createdAt,value
2017-09-05T00:00:49.524Z,19.87
2017-09-05T00:05:51.929Z,19.53
2017-09-05T00:16:34.876Z,16.27
2017-09-05T00:21:37.205Z,15.37
2017-09-05T00:26:39.494Z,19.03
2017-09-05T00:31:41.847Z,22.17
2017-09-05T00:36:44.099Z,17.30
2017-09-05T00:41:46.367Z,16.37
2017-09-05T00:46:48.570Z,14.97
2017-09-05T00:51:50.696Z,16.57
2017-09-05T00:56:52.757Z,16.40
2017-09-05T01:01:54.761Z,16.63
2017-09-05T01:06:56.792Z,16.93
2017-09-05T01:11:58.758Z,15.93
2017-09-05T01:17:00.723Z,15.77
2017-09-05T01:22:02.763Z,16.20
2017-09-05T01:27:04.688Z,25.30
2017-09-05T01:32:06.630Z,20.97
2017-09-05T01:37:08.612Z,17.13
2017-09-05T01:42:10.561Z,20.87
2017-09-05T01:47:12.531Z,19.47
2017-09-05T01:52:14.440Z,19.20
2017-09-05T01:57:16.368Z,17.63
2017-09-05T02:02:18.331Z,24.23
2017-09-05T02:07:20.300Z,18.97
2017-09-05T02:12:22.304Z,20.40
2017-09-05T02:17:24.241Z,23.77
2017-09-05T02:22:26.221Z,19.37
2017-09-05T02:27:28.190Z,23.90
2017-09-05T02:32:30.151Z,20.53
2017-09-05T02:37:32.074Z,24.70
2017-09-05T02:42:33.995Z,22.13
2017-09-05T02:47:39.033Z,23.67
2017-09-05T02:52:43.954Z,21.57
2017-09-05T02:57:50.235Z,27.73
2017-09-05T03:02:56.606Z,23.63
2017-09-05T03:08:05.067Z,21.70
2017-09-05T03:13:10.396Z,23.57
2017-09-05T03:18:15.507Z,24.67
2017-09-05T03:23:22.474Z,18.30
2017-09-05T03:28:32.338Z,23.10
2017-09-05T03:33:38.475Z,20.20
2017-09-05T03:38:45.895Z,21.73
2017-09-05T03:43:53.875Z,22.53
2017-09-05T03:48:59.919Z,19.77
2017-09-05T03:54:03.258Z,19.70
2017-09-05T03:59:12.210Z,21.03
2017-09-05T04:04:20.102Z,23.40
2017-09-05T04:09:26.238Z,20.70
2017-09-05T04:14:30.961Z,22.40
2017-09-05T04:19:36.257Z,31.07
2017-09-05T04:24:38.204Z,25.40
2017-09-05T04:29:40.169Z,26.40
2017-09-05T04:34:43.423Z,20.67
2017-09-05T04:39:51.577Z,21.20
2017-09-05T04:44:57.591Z,23.70
2017-09-05T04:50:01.310Z,20.90
2017-09-05T04:55:07.642Z,21.70
2017-09-05T05:00:12.541Z,20.53
2017-09-05T05:05:20.240Z,20.37
2017-09-05T05:10:24.077Z,21.67
2017-09-05T05:15:27.469Z,24.90
2017-09-05T05:20:29.441Z,24.87
2017-09-05T05:25:36.542Z,23.70
2017-09-05T05:30:40.936Z,20.37
2017-09-05T05:35:47.779Z,19.83
2017-09-05T05:40:50.195Z,20.30
2017-09-05T05:45:52.669Z,23.53
2017-09-05T05:50:56.289Z,19.77
2017-09-05T05:56:00.823Z,18.07
2017-09-05T06:01:04.681Z,17.60
2017-09-05T06:06:13.307Z,16.93
2017-09-05T06:11:16.276Z,17.10
2017-09-05T06:16:22.208Z,15.20
2017-09-05T06:21:25.395Z,18.90
2017-09-05T06:26:27.544Z,14.00
2017-09-05T06:31:29.533Z,16.53
2017-09-05T06:36:31.692Z,19.70
2017-09-05T06:41:33.795Z,15.00
2017-09-05T06:46:36.119Z,16.10
2017-09-05T06:51:40.832Z,15.50
2017-09-05T06:56:48.851Z,15.47
2017-09-05T07:01:53.290Z,17.10
2017-09-05T07:06:55.379Z,15.20
2017-09-05T07:11:57.343Z,17.43
2017-09-05T07:16:59.967Z,16.93
2017-09-05T07:22:02.222Z,13.57
2017-09-05T07:27:11.547Z,24.17
2017-09-05T07:32:15.247Z,15.77
2017-09-05T07:37:17.700Z,13.30
2017-09-05T07:42:22.427Z,17.70
2017-09-05T07:47:24.579Z,11.80
2017-09-05T07:52:27.537Z,12.60
2017-09-05T07:57:29.551Z,10.70
2017-09-05T08:02:31.601Z,15.63
2017-09-05T08:07:35.087Z,16.13
2017-09-05T08:12:40.353Z,14.10
2017-09-05T08:17:44.178Z,11.30
2017-09-05T08:22:50.784Z,12.00
2017-09-05T08:27:54.433Z,15.20
2017-09-05T08:32:59.406Z,13.30
2017-09-05T08:38:05.135Z,10.90
2017-09-05T08:43:13.498Z,10.30
2017-09-05T08:48:20.652Z,11.43
2017-09-05T08:53:26.422Z,9.67
2017-09-05T08:58:32.942Z,12.47
2017-09-05T09:03:41.902Z,11.03
2017-09-05T09:08:47.856Z,10.67
2017-09-05T09:13:52.162Z,10.73
2017-09-05T09:18:55.657Z,10.50
2017-09-05T09:24:02.932Z,12.23
2017-09-05T09:29:16.452Z,13.10
2017-09-05T09:34:21.128Z,9.80
2017-09-05T09:39:25.325Z,12.97
2017-09-05T09:44:32.203Z,12.30
2017-09-05T09:49:36.585Z,13.10
2017-09-05T09:54:40.959Z,21.40
2017-09-05T09:59:45.510Z,12.40
2017-09-05T10:04:50.747Z,14.90
2017-09-05T10:09:55.845Z,10.77
2017-09-05T10:15:00.160Z,12.07
2017-09-05T10:20:07.374Z,14.60
2017-09-05T10:25:13.363Z,13.53
2017-09-05T10:30:21.684Z,20.97
2017-09-05T10:35:25.361Z,13.10
2017-09-05T10:40:29.333Z,20.63
2017-09-05T10:45:33.351Z,16.17
2017-09-05T10:50:37.130Z,16.33
2017-09-05T10:55:41.156Z,14.90
2017-09-05T11:00:48.183Z,13.43
2017-09-05T11:05:53.567Z,10.47
2017-09-05T11:10:57.873Z,12.13
2017-09-05T11:16:02.088Z,12.33
2017-09-05T11:21:08.143Z,14.23
2017-09-05T11:26:13.603Z,12.03
2017-09-05T11:31:18.841Z,14.67
2017-09-05T11:36:26.699Z,13.20
2017-09-05T11:41:34.345Z,14.20
2017-09-05T11:46:38.478Z,11.67
2017-09-05T11:51:44.507Z,11.50
2017-09-05T11:56:52.169Z,10.03
2017-09-05T12:01:57.977Z,12.30
2017-09-05T12:07:06.374Z,10.50
2017-09-05T12:12:12.474Z,10.97
2017-09-05T12:17:20.649Z,13.80
2017-09-05T12:22:26.663Z,10.30
2017-09-05T12:27:34.803Z,8.50
2017-09-05T12:32:41.006Z,10.50
2017-09-05T12:37:45.007Z,7.93
2017-09-05T12:42:48.467Z,7.90
2017-09-05T12:47:54.781Z,9.83
2017-09-05T12:52:58.113Z,9.50
2017-09-05T12:58:04.162Z,7.40
2017-09-05T13:03:10.907Z,19.47
2017-09-05T13:08:17.541Z,10.00
2017-09-05T13:13:24.032Z,8.87
2017-09-05T13:18:27.677Z,12.23
2017-09-05T13:23:30.614Z,7.40
2017-09-05T13:28:39.264Z,7.37
2017-09-05T13:33:42.976Z,15.10
2017-09-05T13:38:50.774Z,6.57
2017-09-05T13:43:54.177Z,13.90
2017-09-05T13:49:00.471Z,7.27
2017-09-05T13:54:03.899Z,6.80
2017-09-05T13:59:09.800Z,10.27
2017-09-05T14:04:12.246Z,7.57
2017-09-05T14:09:14.600Z,13.57
2017-09-05T14:14:19.276Z,8.90
2017-09-05T14:19:26.363Z,6.67
2017-09-05T14:24:28.617Z,8.03
2017-09-05T14:29:31.625Z,8.07
2017-09-05T14:34:35.490Z,10.27
2017-09-05T14:39:37.861Z,8.97
2017-09-05T14:44:40.166Z,18.30
2017-09-05T14:49:43.164Z,11.20
2017-09-05T14:54:45.324Z,18.40
2017-09-05T14:59:47.685Z,7.93
2017-09-05T15:04:49.811Z,9.13
2017-09-05T15:09:54.684Z,12.10
2017-09-05T15:15:03.961Z,17.33
2017-09-05T15:20:09.150Z,15.03
2017-09-05T15:25:17.204Z,11.83
2017-09-05T15:30:22.896Z,24.50
2017-09-05T15:35:25.630Z,11.13
2017-09-05T15:40:28.327Z,12.80
2017-09-05T15:45:30.576Z,19.87
2017-09-05T15:50:32.772Z,14.30
2017-09-05T15:55:35.193Z,7.93
2017-09-05T16:00:37.991Z,10.30
2017-09-05T16:05:42.779Z,13.13
2017-09-05T16:10:45.222Z,9.17
2017-09-05T16:15:49.379Z,9.90
2017-09-05T16:20:56.542Z,12.80
2017-09-05T16:25:59.879Z,10.57
2017-09-05T16:31:02.114Z,10.97
2017-09-05T16:36:04.289Z,8.43
2017-09-05T16:41:07.112Z,13.87
2017-09-05T16:46:09.871Z,15.50
2017-09-05T16:51:12.274Z,6.20
2017-09-05T16:56:14.981Z,7.47
2017-09-05T17:01:18.287Z,9.47
2017-09-05T17:06:20.677Z,7.40
2017-09-05T17:11:23.259Z,8.27
2017-09-05T17:16:25.410Z,11.07
2017-09-05T17:21:28.883Z,14.43
2017-09-05T17:26:31.479Z,11.83
2017-09-05T17:31:33.861Z,18.80
2017-09-05T17:36:36.038Z,11.60
2017-09-05T17:41:38.310Z,13.10
2017-09-05T17:46:40.679Z,12.03
2017-09-05T17:51:43.082Z,11.30
2017-09-05T17:56:45.563Z,11.30
2017-09-05T18:01:53.741Z,7.87
2017-09-05T18:06:56.004Z,10.07
2017-09-05T18:11:59.942Z,10.17
2017-09-05T18:17:03.000Z,11.13
2017-09-05T18:22:05.275Z,5.70
2017-09-05T18:27:08.378Z,5.63
2017-09-05T18:32:13.479Z,9.77
2017-09-05T18:37:23.118Z,5.60
2017-09-05T18:42:32.088Z,5.83
2017-09-05T18:47:38.618Z,5.67
2017-09-05T18:52:42.054Z,6.13
2017-09-05T18:57:45.345Z,5.73
2017-09-05T19:02:50.001Z,5.20
2017-09-05T19:07:57.060Z,7.53
2017-09-05T19:13:05.697Z,6.80
2017-09-05T19:18:13.805Z,6.80
2017-09-05T19:23:16.019Z,4.37
2017-09-05T19:28:22.250Z,5.20
2017-09-05T19:33:25.404Z,7.90
2017-09-05T19:38:32.158Z,8.03
2017-09-05T19:43:38.272Z,7.53
2017-09-05T19:48:40.534Z,6.13
2017-09-05T19:53:42.860Z,6.47
2017-09-05T19:58:45.182Z,4.70
2017-09-05T20:03:47.140Z,13.00
2017-09-05T20:08:49.062Z,5.37
2017-09-05T20:13:51.386Z,5.73
2017-09-05T20:18:53.778Z,6.07
2017-09-05T20:23:55.720Z,7.23
2017-09-05T20:28:58.149Z,7.20
2017-09-05T20:34:00.067Z,6.80
2017-09-05T20:39:02.032Z,6.97
2017-09-05T20:44:04.030Z,5.70
2017-09-05T20:49:06.044Z,6.67
2017-09-05T20:54:08.011Z,8.43
2017-09-05T20:59:10.800Z,9.23
2017-09-05T21:04:12.775Z,6.63
2017-09-05T21:09:14.740Z,10.20
2017-09-05T21:14:16.677Z,8.83
2017-09-05T21:19:18.624Z,12.90
2017-09-05T21:24:20.589Z,7.30
2017-09-05T21:29:22.591Z,11.63
2017-09-05T21:34:24.964Z,8.87
2017-09-05T21:39:27.060Z,12.90
2017-09-05T21:44:29.096Z,9.77
2017-09-05T21:49:31.115Z,9.00
2017-09-05T21:54:33.270Z,9.57
2017-09-05T21:59:35.266Z,9.53
2017-09-05T22:04:37.620Z,10.93
2017-09-05T22:09:39.687Z,9.70
2017-09-05T22:14:47.799Z,8.90
2017-09-05T22:19:55.862Z,13.90
2017-09-05T22:25:03.767Z,10.13
2017-09-05T22:30:07.020Z,10.50
2017-09-05T22:35:09.124Z,11.60
2017-09-05T22:40:11.149Z,8.40
2017-09-05T22:45:13.089Z,8.90
2017-09-05T22:50:15.019Z,9.13
2017-09-05T22:55:16.944Z,9.53
2017-09-05T23:00:19.252Z,7.00
2017-09-05T23:05:21.157Z,7.57
2017-09-05T23:10:23.715Z,9.20
2017-09-05T23:15:25.977Z,9.27
2017-09-05T23:20:27.975Z,9.10
2017-09-05T23:25:29.903Z,12.10
2017-09-05T23:30:32.008Z,4.33
2017-09-05T23:35:34.815Z,10.93
2017-09-05T23:40:36.848Z,4.93
2017-09-05T23:45:38.789Z,4.20
2017-09-05T23:50:40.746Z,5.63
2017-09-05T23:55:44.191Z,4.70
